Pagina principale
METAR-TAF:

METAR-TAF

Aeroporti :

Aeroporto di Rieti

Rieti, Italia

latitudine: 42-25N, longitudine: 012-51E, altezza: 389 m

Osservazione

Il bollettino è stato emesso 1 ora e 54 minuti fa, alle 17:50 UTC
Vento 4 kt da est
Temperature 11°C
Umidità 100%
Pressione 1007 hPa
Visibilità: 6000 m
Poco nuvoloso ad un'altezza di 1000 ft
Nuvoloso ad un'altezza di 3000 ft
pioggia debole

METAR: LIQN 191750Z 08004KT 6000 -RA FEW010 BKN030 11/11 Q1007

Ora: 21:44 (19:44 UTC)


TAF: mancante

Osservazioni e previsioni meteorologiche di più di 4000 aeroporti (messaggi METAR e TAF).

Le stazioni disponibili sono rappresentate dai dischi gialli e rossi sulla carta.

Puntare il mouse per vedere il nome della stazione.

Clicca sopra per visualizzare le osservazioni e previsioni meteorologiche.

Per cambiare la mappa : fare clic sui pulsanti verdi con una croce nera per ingrandire, il pulsante verde con un trattino per diminuire, o sulla freccia verde per le mappe adiacenti.


METAR-TAF: